sensor_id;sensor_type;location;lat;lon;timestamp;P1;durP1;ratioP1;P2;durP2;ratioP2
28774;SDS011;15926;51.348;6.596;2023-07-29T04:04:17;5.28;;;4.78;;
28774;SDS011;15926;51.348;6.596;2023-07-29T04:06:43;8.50;;;5.25;;
28774;SDS011;15926;51.348;6.596;2023-07-29T04:09:09;6.05;;;5.55;;
28774;SDS011;15926;51.348;6.596;2023-07-29T04:11:35;5.57;;;5.07;;
28774;SDS011;15926;51.348;6.596;2023-07-29T04:14:01;5.65;;;5.03;;
28774;SDS011;15926;51.348;6.596;2023-07-29T04:16:27;5.50;;;4.90;;
28774;SDS011;15926;51.348;6.596;2023-07-29T04:18:53;5.82;;;4.82;;
28774;SDS011;15926;51.348;6.596;2023-07-29T04:21:19;5.30;;;4.80;;
28774;SDS011;15926;51.348;6.596;2023-07-29T04:23:45;5.18;;;4.78;;
28774;SDS011;15926;51.348;6.596;2023-07-29T04:26:11;9.90;;;5.05;;
28774;SDS011;15926;51.348;6.596;2023-07-29T04:28:38;5.88;;;5.22;;
28774;SDS011;15926;51.348;6.596;2023-07-29T04:31:04;5.30;;;4.55;;
28774;SDS011;15926;51.348;6.596;2023-07-29T04:33:30;7.53;;;5.03;;
28774;SDS011;15926;51.348;6.596;2023-07-29T04:35:56;4.93;;;4.53;;
28774;SDS011;15926;51.348;6.596;2023-07-29T04:38:24;5.47;;;4.93;;
28774;SDS011;15926;51.348;6.596;2023-07-29T04:40:50;5.10;;;4.60;;
28774;SDS011;15926;51.348;6.596;2023-07-29T04:43:16;7.35;;;4.80;;
28774;SDS011;15926;51.348;6.596;2023-07-29T04:45:42;5.15;;;4.75;;
28774;SDS011;15926;51.348;6.596;2023-07-29T04:48:08;4.82;;;3.70;;
28774;SDS011;15926;51.348;6.596;2023-07-29T04:50:34;3.85;;;3.55;;
28774;SDS011;15926;51.348;6.596;2023-07-29T04:53:00;3.72;;;3.30;;
28774;SDS011;15926;51.348;6.596;2023-07-29T04:55:26;3.85;;;3.55;;
28774;SDS011;15926;51.348;6.596;2023-07-29T04:57:52;3.00;;;2.70;;
28774;SDS011;15926;51.348;6.596;2023-07-29T05:00:18;2.97;;;2.65;;
28774;SDS011;15926;51.348;6.596;2023-07-29T05:02:44;2.67;;;2.47;;
28774;SDS011;15926;51.348;6.596;2023-07-29T05:05:10;2.90;;;2.70;;
28774;SDS011;15926;51.348;6.596;2023-07-29T05:07:36;6.07;;;2.80;;
28774;SDS011;15926;51.348;6.596;2023-07-29T05:10:03;4.82;;;2.88;;
28774;SDS011;15926;51.348;6.596;2023-07-29T05:12:29;3.05;;;2.75;;
28774;SDS011;15926;51.348;6.596;2023-07-29T05:14:56;3.00;;;2.80;;
28774;SDS011;15926;51.348;6.596;2023-07-29T05:17:22;4.60;;;3.38;;
28774;SDS011;15926;51.348;6.596;2023-07-29T05:19:48;3.05;;;2.78;;
28774;SDS011;15926;51.348;6.596;2023-07-29T05:22:14;2.60;;;2.40;;
28774;SDS011;15926;51.348;6.596;2023-07-29T05:24:40;3.83;;;2.67;;
28774;SDS011;15926;51.348;6.596;2023-07-29T05:27:06;3.22;;;2.63;;
28774;SDS011;15926;51.348;6.596;2023-07-29T05:29:33;3.05;;;2.75;;
28774;SDS011;15926;51.348;6.596;2023-07-29T05:31:59;3.83;;;2.60;;
28774;SDS011;15926;51.348;6.596;2023-07-29T05:34:26;5.93;;;2.83;;
28774;SDS011;15926;51.348;6.596;2023-07-29T05:36:52;2.30;;;2.10;;
28774;SDS011;15926;51.348;6.596;2023-07-29T05:39:18;3.20;;;2.50;;
28774;SDS011;15926;51.348;6.596;2023-07-29T05:41:44;3.40;;;2.88;;
28774;SDS011;15926;51.348;6.596;2023-07-29T05:44:10;3.50;;;3.13;;
28774;SDS011;15926;51.348;6.596;2023-07-29T05:46:36;3.40;;;3.08;;
28774;SDS011;15926;51.348;6.596;2023-07-29T05:49:02;3.33;;;3.03;;
28774;SDS011;15926;51.348;6.596;2023-07-29T05:51:28;3.42;;;3.13;;
28774;SDS011;15926;51.348;6.596;2023-07-29T05:53:54;3.70;;;2.92;;
28774;SDS011;15926;51.348;6.596;2023-07-29T05:56:20;3.03;;;2.72;;
28774;SDS011;15926;51.348;6.596;2023-07-29T05:58:46;3.67;;;2.33;;
28774;SDS011;15926;51.348;6.596;2023-07-29T06:01:12;3.25;;;2.20;;
28774;SDS011;15926;51.348;6.596;2023-07-29T06:03:38;3.55;;;2.17;;
28774;SDS011;15926;51.348;6.596;2023-07-29T06:06:04;4.47;;;2.10;;
28774;SDS011;15926;51.348;6.596;2023-07-29T06:08:30;3.42;;;2.05;;
28774;SDS011;15926;51.348;6.596;2023-07-29T06:10:59;2.67;;;1.88;;
28774;SDS011;15926;51.348;6.596;2023-07-29T06:13:25;2.10;;;1.88;;
28774;SDS011;15926;51.348;6.596;2023-07-29T06:15:51;1.88;;;1.77;;
28774;SDS011;15926;51.348;6.596;2023-07-29T06:18:17;2.53;;;1.90;;
28774;SDS011;15926;51.348;6.596;2023-07-29T06:20:43;1.98;;;1.88;;
28774;SDS011;15926;51.348;6.596;2023-07-29T06:23:09;2.78;;;1.48;;
28774;SDS011;15926;51.348;6.596;2023-07-29T06:25:35;1.85;;;1.75;;
28774;SDS011;15926;51.348;6.596;2023-07-29T06:28:01;2.15;;;1.42;;
28774;SDS011;15926;51.348;6.596;2023-07-29T06:30:27;2.55;;;1.88;;
28774;SDS011;15926;51.348;6.596;2023-07-29T06:32:53;1.67;;;1.50;;
28774;SDS011;15926;51.348;6.596;2023-07-29T06:35:19;1.50;;;1.40;;
28774;SDS011;15926;51.348;6.596;2023-07-29T06:37:45;1.60;;;1.50;;
28774;SDS011;15926;51.348;6.596;2023-07-29T06:40:11;1.30;;;1.20;;
28774;SDS011;15926;51.348;6.596;2023-07-29T06:42:37;2.50;;;1.17;;
28774;SDS011;15926;51.348;6.596;2023-07-29T06:45:04;1.40;;;1.25;;
28774;SDS011;15926;51.348;6.596;2023-07-29T06:47:30;1.20;;;1.10;;
28774;SDS011;15926;51.348;6.596;2023-07-29T06:49:56;1.20;;;1.10;;
28774;SDS011;15926;51.348;6.596;2023-07-29T06:52:22;1.33;;;1.23;;
28774;SDS011;15926;51.348;6.596;2023-07-29T06:54:48;2.40;;;1.13;;
28774;SDS011;15926;51.348;6.596;2023-07-29T06:57:14;1.42;;;1.20;;
28774;SDS011;15926;51.348;6.596;2023-07-29T06:59:40;2.15;;;1.10;;
28774;SDS011;15926;51.348;6.596;2023-07-29T07:02:06;1.45;;;1.10;;
28774;SDS011;15926;51.348;6.596;2023-07-29T07:04:32;1.35;;;1.25;;
28774;SDS011;15926;51.348;6.596;2023-07-29T07:06:58;3.00;;;1.20;;
28774;SDS011;15926;51.348;6.596;2023-07-29T07:09:24;2.03;;;0.95;;
28774;SDS011;15926;51.348;6.596;2023-07-29T07:11:50;1.17;;;1.00;;
28774;SDS011;15926;51.348;6.596;2023-07-29T07:14:17;1.10;;;0.80;;
28774;SDS011;15926;51.348;6.596;2023-07-29T07:16:43;1.00;;;0.80;;
28774;SDS011;15926;51.348;6.596;2023-07-29T07:19:10;1.02;;;0.80;;
28774;SDS011;15926;51.348;6.596;2023-07-29T07:21:36;0.85;;;0.80;;
28774;SDS011;15926;51.348;6.596;2023-07-29T07:24:02;1.88;;;1.00;;
28774;SDS011;15926;51.348;6.596;2023-07-29T07:26:28;0.95;;;0.95;;
28774;SDS011;15926;51.348;6.596;2023-07-29T07:28:54;1.33;;;1.20;;
28774;SDS011;15926;51.348;6.596;2023-07-29T07:31:20;0.90;;;0.90;;
28774;SDS011;15926;51.348;6.596;2023-07-29T07:33:46;0.68;;;0.63;;
28774;SDS011;15926;51.348;6.596;2023-07-29T07:36:12;1.02;;;0.70;;
28774;SDS011;15926;51.348;6.596;2023-07-29T07:38:38;2.22;;;0.70;;
28774;SDS011;15926;51.348;6.596;2023-07-29T07:41:04;1.35;;;0.80;;
28774;SDS011;15926;51.348;6.596;2023-07-29T07:43:30;0.75;;;0.75;;
28774;SDS011;15926;51.348;6.596;2023-07-29T07:46:00;0.75;;;0.70;;
28774;SDS011;15926;51.348;6.596;2023-07-29T07:48:26;0.70;;;0.70;;
28774;SDS011;15926;51.348;6.596;2023-07-29T07:50:52;1.15;;;0.82;;
28774;SDS011;15926;51.348;6.596;2023-07-29T07:53:18;1.42;;;1.00;;
28774;SDS011;15926;51.348;6.596;2023-07-29T07:55:47;1.50;;;0.70;;
28774;SDS011;15926;51.348;6.596;2023-07-29T07:58:13;2.20;;;0.95;;
28774;SDS011;15926;51.348;6.596;2023-07-29T08:00:39;0.70;;;0.70;;
28774;SDS011;15926;51.348;6.596;2023-07-29T08:03:05;0.80;;;0.80;;
28774;SDS011;15926;51.348;6.596;2023-07-29T08:05:31;0.88;;;0.70;;
28774;SDS011;15926;51.348;6.596;2023-07-29T08:07:57;1.55;;;0.90;;
28774;SDS011;15926;51.348;6.596;2023-07-29T08:10:23;0.60;;;0.60;;
28774;SDS011;15926;51.348;6.596;2023-07-29T08:12:49;1.20;;;0.70;;
28774;SDS011;15926;51.348;6.596;2023-07-29T08:15:15;0.70;;;0.70;;
28774;SDS011;15926;51.348;6.596;2023-07-29T08:17:41;2.05;;;0.70;;
28774;SDS011;15926;51.348;6.596;2023-07-29T08:20:07;0.98;;;0.75;;
28774;SDS011;15926;51.348;6.596;2023-07-29T08:22:34;0.93;;;0.60;;
28774;SDS011;15926;51.348;6.596;2023-07-29T08:25:00;0.70;;;0.70;;
28774;SDS011;15926;51.348;6.596;2023-07-29T08:27:26;0.93;;;0.70;;
28774;SDS011;15926;51.348;6.596;2023-07-29T08:29:53;1.02;;;0.60;;
28774;SDS011;15926;51.348;6.596;2023-07-29T08:32:19;0.77;;;0.70;;
28774;SDS011;15926;51.348;6.596;2023-07-29T08:34:45;1.20;;;0.57;;
28774;SDS011;15926;51.348;6.596;2023-07-29T08:37:11;0.75;;;0.70;;
28774;SDS011;15926;51.348;6.596;2023-07-29T08:39:38;2.00;;;0.68;;
28774;SDS011;15926;51.348;6.596;2023-07-29T08:42:04;1.00;;;0.82;;
28774;SDS011;15926;51.348;6.596;2023-07-29T08:44:35;1.92;;;0.70;;
28774;SDS011;15926;51.348;6.596;2023-07-29T08:47:02;0.75;;;0.60;;
28774;SDS011;15926;51.348;6.596;2023-07-29T08:49:28;1.20;;;0.68;;
28774;SDS011;15926;51.348;6.596;2023-07-29T08:51:54;0.82;;;0.60;;
28774;SDS011;15926;51.348;6.596;2023-07-29T08:54:20;0.70;;;0.70;;
28774;SDS011;15926;51.348;6.596;2023-07-29T08:56:47;2.35;;;0.70;;
28774;SDS011;15926;51.348;6.596;2023-07-29T08:59:13;0.60;;;0.60;;
28774;SDS011;15926;51.348;6.596;2023-07-29T09:01:39;0.70;;;0.70;;
28774;SDS011;15926;51.348;6.596;2023-07-29T09:04:05;0.57;;;0.57;;
28774;SDS011;15926;51.348;6.596;2023-07-29T09:06:31;0.70;;;0.70;;
28774;SDS011;15926;51.348;6.596;2023-07-29T09:08:58;0.75;;;0.75;;
28774;SDS011;15926;51.348;6.596;2023-07-29T09:11:24;2.25;;;0.88;;
28774;SDS011;15926;51.348;6.596;2023-07-29T09:13:50;0.93;;;0.73;;
28774;SDS011;15926;51.348;6.596;2023-07-29T09:16:17;0.93;;;0.88;;
28774;SDS011;15926;51.348;6.596;2023-07-29T09:18:45;1.17;;;0.80;;
28774;SDS011;15926;51.348;6.596;2023-07-29T09:21:13;0.80;;;0.80;;
28774;SDS011;15926;51.348;6.596;2023-07-29T09:23:41;0.95;;;0.60;;
28774;SDS011;15926;51.348;6.596;2023-07-29T09:26:07;0.80;;;0.80;;
28774;SDS011;15926;51.348;6.596;2023-07-29T09:28:34;4.22;;;0.95;;
28774;SDS011;15926;51.348;6.596;2023-07-29T09:31:00;1.35;;;0.90;;
28774;SDS011;15926;51.348;6.596;2023-07-29T09:33:27;1.50;;;0.75;;
28774;SDS011;15926;51.348;6.596;2023-07-29T09:35:53;0.85;;;0.65;;
28774;SDS011;15926;51.348;6.596;2023-07-29T09:38:25;1.35;;;0.80;;
28774;SDS011;15926;51.348;6.596;2023-07-29T09:40:54;2.10;;;0.70;;
28774;SDS011;15926;51.348;6.596;2023-07-29T09:43:20;0.73;;;0.60;;
28774;SDS011;15926;51.348;6.596;2023-07-29T09:45:51;0.70;;;0.65;;
28774;SDS011;15926;51.348;6.596;2023-07-29T09:48:19;0.73;;;0.73;;
28774;SDS011;15926;51.348;6.596;2023-07-29T09:50:46;1.15;;;0.80;;
28774;SDS011;15926;51.348;6.596;2023-07-29T09:53:12;1.95;;;0.85;;
28774;SDS011;15926;51.348;6.596;2023-07-29T09:55:39;2.05;;;0.90;;
28774;SDS011;15926;51.348;6.596;2023-07-29T09:58:05;0.85;;;0.80;;
28774;SDS011;15926;51.348;6.596;2023-07-29T10:00:33;1.08;;;0.98;;
28774;SDS011;15926;51.348;6.596;2023-07-29T10:02:59;1.20;;;1.08;;
28774;SDS011;15926;51.348;6.596;2023-07-29T10:05:26;1.27;;;0.90;;
28774;SDS011;15926;51.348;6.596;2023-07-29T10:07:53;1.50;;;0.88;;
28774;SDS011;15926;51.348;6.596;2023-07-29T10:10:19;1.25;;;0.88;;
28774;SDS011;15926;51.348;6.596;2023-07-29T10:12:46;0.90;;;0.90;;
28774;SDS011;15926;51.348;6.596;2023-07-29T10:15:12;0.80;;;0.80;;
28774;SDS011;15926;51.348;6.596;2023-07-29T10:17:39;1.17;;;0.80;;
28774;SDS011;15926;51.348;6.596;2023-07-29T10:20:06;0.70;;;0.70;;
28774;SDS011;15926;51.348;6.596;2023-07-29T10:22:39;1.00;;;0.90;;
28774;SDS011;15926;51.348;6.596;2023-07-29T10:25:09;2.03;;;1.05;;
28774;SDS011;15926;51.348;6.596;2023-07-29T10:27:43;0.90;;;0.90;;
28774;SDS011;15926;51.348;6.596;2023-07-29T10:30:12;0.93;;;0.93;;
28774;SDS011;15926;51.348;6.596;2023-07-29T10:32:39;0.60;;;0.60;;
28774;SDS011;15926;51.348;6.596;2023-07-29T10:35:07;0.80;;;0.80;;
28774;SDS011;15926;51.348;6.596;2023-07-29T10:37:33;1.88;;;0.90;;
28774;SDS011;15926;51.348;6.596;2023-07-29T10:40:00;0.98;;;0.95;;
28774;SDS011;15926;51.348;6.596;2023-07-29T10:42:26;2.50;;;0.90;;
28774;SDS011;15926;51.348;6.596;2023-07-29T10:44:52;2.38;;;0.90;;
28774;SDS011;15926;51.348;6.596;2023-07-29T10:49:46;1.13;;;0.80;;
28774;SDS011;15926;51.348;6.596;2023-07-29T10:52:13;0.90;;;0.90;;
28774;SDS011;15926;51.348;6.596;2023-07-29T10:54:43;1.27;;;0.88;;
28774;SDS011;15926;51.348;6.596;2023-07-29T10:57:15;0.80;;;0.80;;
28774;SDS011;15926;51.348;6.596;2023-07-29T10:59:56;2.78;;;0.63;;
28774;SDS011;15926;51.348;6.596;2023-07-29T11:02:28;1.25;;;0.85;;
28774;SDS011;15926;51.348;6.596;2023-07-29T11:04:54;2.63;;;0.88;;
28774;SDS011;15926;51.348;6.596;2023-07-29T11:07:20;1.00;;;0.80;;
28774;SDS011;15926;51.348;6.596;2023-07-29T11:15:11;1.00;;;0.95;;
28774;SDS011;15926;51.348;6.596;2023-07-29T11:20:04;0.60;;;0.60;;
28774;SDS011;15926;51.348;6.596;2023-07-29T11:22:30;0.80;;;0.80;;
28774;SDS011;15926;51.348;6.596;2023-07-29T11:24:56;1.13;;;0.90;;
28774;SDS011;15926;51.348;6.596;2023-07-29T11:27:22;1.60;;;0.82;;
28774;SDS011;15926;51.348;6.596;2023-07-29T11:29:48;2.33;;;0.80;;
28774;SDS011;15926;51.348;6.596;2023-07-29T11:32:15;0.63;;;0.63;;
28774;SDS011;15926;51.348;6.596;2023-07-29T11:34:41;0.90;;;0.90;;
28774;SDS011;15926;51.348;6.596;2023-07-29T11:37:09;0.90;;;0.90;;
28774;SDS011;15926;51.348;6.596;2023-07-29T11:39:41;2.08;;;0.80;;
28774;SDS011;15926;51.348;6.596;2023-07-29T11:42:11;1.40;;;0.90;;
28774;SDS011;15926;51.348;6.596;2023-07-29T11:44:37;0.80;;;0.80;;
28774;SDS011;15926;51.348;6.596;2023-07-29T11:47:07;2.03;;;0.75;;
28774;SDS011;15926;51.348;6.596;2023-07-29T11:49:33;1.00;;;0.80;;
28774;SDS011;15926;51.348;6.596;2023-07-29T11:51:59;1.17;;;0.70;;
28774;SDS011;15926;51.348;6.596;2023-07-29T11:54:25;1.85;;;1.00;;
28774;SDS011;15926;51.348;6.596;2023-07-29T11:56:52;0.88;;;0.80;;
28774;SDS011;15926;51.348;6.596;2023-07-29T11:59:18;1.08;;;0.85;;
28774;SDS011;15926;51.348;6.596;2023-07-29T12:01:45;0.77;;;0.77;;
28774;SDS011;15926;51.348;6.596;2023-07-29T12:04:11;0.98;;;0.90;;
28774;SDS011;15926;51.348;6.596;2023-07-29T12:06:38;1.08;;;1.00;;
28774;SDS011;15926;51.348;6.596;2023-07-29T12:09:04;0.90;;;0.90;;
28774;SDS011;15926;51.348;6.596;2023-07-29T12:11:30;0.88;;;0.80;;
28774;SDS011;15926;51.348;6.596;2023-07-29T12:13:57;1.08;;;0.98;;
28774;SDS011;15926;51.348;6.596;2023-07-29T12:16:23;1.17;;;1.08;;
28774;SDS011;15926;51.348;6.596;2023-07-29T12:18:50;0.80;;;0.80;;
28774;SDS011;15926;51.348;6.596;2023-07-29T12:21:16;1.23;;;1.13;;
28774;SDS011;15926;51.348;6.596;2023-07-29T12:23:42;3.42;;;0.95;;
28774;SDS011;15926;51.348;6.596;2023-07-29T12:26:08;1.15;;;0.95;;
28774;SDS011;15926;51.348;6.596;2023-07-29T12:28:34;1.13;;;1.10;;
28774;SDS011;15926;51.348;6.596;2023-07-29T12:31:00;1.25;;;0.93;;
28774;SDS011;15926;51.348;6.596;2023-07-29T12:38:21;1.05;;;0.98;;
28774;SDS011;15926;51.348;6.596;2023-07-29T12:40:47;2.25;;;1.10;;
28774;SDS011;15926;51.348;6.596;2023-07-29T12:43:13;0.90;;;0.90;;
28774;SDS011;15926;51.348;6.596;2023-07-29T12:45:39;1.00;;;0.88;;
28774;SDS011;15926;51.348;6.596;2023-07-29T12:48:06;1.60;;;1.10;;
28774;SDS011;15926;51.348;6.596;2023-07-29T12:50:32;1.33;;;1.20;;
28774;SDS011;15926;51.348;6.596;2023-07-29T12:52:58;1.15;;;1.00;;
28774;SDS011;15926;51.348;6.596;2023-07-29T12:55:24;1.08;;;0.98;;
28774;SDS011;15926;51.348;6.596;2023-07-29T12:57:50;0.88;;;0.80;;
28774;SDS011;15926;51.348;6.596;2023-07-29T13:00:16;1.67;;;1.00;;
28774;SDS011;15926;51.348;6.596;2023-07-29T13:02:42;1.25;;;1.13;;
28774;SDS011;15926;51.348;6.596;2023-07-29T13:05:09;2.15;;;0.80;;
28774;SDS011;15926;51.348;6.596;2023-07-29T13:07:39;2.10;;;1.10;;
28774;SDS011;15926;51.348;6.596;2023-07-29T13:10:05;1.13;;;0.80;;
28774;SDS011;15926;51.348;6.596;2023-07-29T13:12:31;0.98;;;0.98;;
28774;SDS011;15926;51.348;6.596;2023-07-29T13:14:57;1.48;;;0.95;;
28774;SDS011;15926;51.348;6.596;2023-07-29T13:17:23;2.13;;;0.85;;
28774;SDS011;15926;51.348;6.596;2023-07-29T13:19:49;1.00;;;1.00;;
28774;SDS011;15926;51.348;6.596;2023-07-29T13:22:15;2.08;;;1.05;;
28774;SDS011;15926;51.348;6.596;2023-07-29T13:24:41;2.63;;;1.48;;
28774;SDS011;15926;51.348;6.596;2023-07-29T13:27:07;1.10;;;0.90;;
28774;SDS011;15926;51.348;6.596;2023-07-29T13:29:33;1.30;;;1.20;;
28774;SDS011;15926;51.348;6.596;2023-07-29T13:31:59;1.80;;;1.10;;
28774;SDS011;15926;51.348;6.596;2023-07-29T13:34:25;1.10;;;1.00;;
28774;SDS011;15926;51.348;6.596;2023-07-29T13:36:51;1.60;;;1.10;;
28774;SDS011;15926;51.348;6.596;2023-07-29T13:39:17;1.90;;;1.80;;
28774;SDS011;15926;51.348;6.596;2023-07-29T13:41:43;1.73;;;1.45;;
28774;SDS011;15926;51.348;6.596;2023-07-29T13:44:09;2.80;;;1.50;;
28774;SDS011;15926;51.348;6.596;2023-07-29T13:46:35;1.80;;;1.60;;
28774;SDS011;15926;51.348;6.596;2023-07-29T13:49:01;1.40;;;1.30;;
28774;SDS011;15926;51.348;6.596;2023-07-29T13:51:28;1.50;;;1.40;;
28774;SDS011;15926;51.348;6.596;2023-07-29T13:53:54;1.70;;;1.50;;
28774;SDS011;15926;51.348;6.596;2023-07-29T13:56:21;3.20;;;1.50;;
28774;SDS011;15926;51.348;6.596;2023-07-29T13:58:47;1.38;;;1.27;;
28774;SDS011;15926;51.348;6.596;2023-07-29T14:01:13;2.13;;;1.55;;
28774;SDS011;15926;51.348;6.596;2023-07-29T14:03:39;2.58;;;1.40;;
28774;SDS011;15926;51.348;6.596;2023-07-29T14:06:05;3.45;;;1.10;;
28774;SDS011;15926;51.348;6.596;2023-07-29T14:08:31;1.40;;;1.30;;
28774;SDS011;15926;51.348;6.596;2023-07-29T14:10:57;2.05;;;1.55;;
28774;SDS011;15926;51.348;6.596;2023-07-29T14:13:23;1.90;;;1.33;;
28774;SDS011;15926;51.348;6.596;2023-07-29T14:15:49;2.83;;;1.25;;
28774;SDS011;15926;51.348;6.596;2023-07-29T14:18:15;1.10;;;1.00;;
28774;SDS011;15926;51.348;6.596;2023-07-29T14:20:41;3.42;;;1.15;;
28774;SDS011;15926;51.348;6.596;2023-07-29T14:23:07;2.63;;;1.50;;
28774;SDS011;15926;51.348;6.596;2023-07-29T14:25:33;1.98;;;1.00;;
28774;SDS011;15926;51.348;6.596;2023-07-29T14:27:59;0.95;;;0.90;;
28774;SDS011;15926;51.348;6.596;2023-07-29T14:30:25;2.45;;;1.30;;
28774;SDS011;15926;51.348;6.596;2023-07-29T14:32:51;1.10;;;1.00;;
28774;SDS011;15926;51.348;6.596;2023-07-29T14:35:17;1.80;;;1.00;;
28774;SDS011;15926;51.348;6.596;2023-07-29T14:37:43;1.27;;;1.00;;
28774;SDS011;15926;51.348;6.596;2023-07-29T14:40:09;1.20;;;1.10;;
28774;SDS011;15926;51.348;6.596;2023-07-29T14:42:35;1.40;;;1.30;;
28774;SDS011;15926;51.348;6.596;2023-07-29T14:45:01;1.35;;;1.25;;
28774;SDS011;15926;51.348;6.596;2023-07-29T14:47:27;2.08;;;1.20;;
28774;SDS011;15926;51.348;6.596;2023-07-29T14:49:53;2.80;;;1.40;;
28774;SDS011;15926;51.348;6.596;2023-07-29T14:52:19;1.15;;;1.13;;
28774;SDS011;15926;51.348;6.596;2023-07-29T14:54:45;1.65;;;1.55;;
28774;SDS011;15926;51.348;6.596;2023-07-29T14:57:11;1.20;;;1.02;;
28774;SDS011;15926;51.348;6.596;2023-07-29T14:59:37;1.65;;;1.13;;
28774;SDS011;15926;51.348;6.596;2023-07-29T15:02:04;4.32;;;1.30;;
28774;SDS011;15926;51.348;6.596;2023-07-29T15:04:30;2.40;;;1.20;;
28774;SDS011;15926;51.348;6.596;2023-07-29T15:06:56;1.30;;;1.20;;
28774;SDS011;15926;51.348;6.596;2023-07-29T15:09:23;0.88;;;0.85;;
28774;SDS011;15926;51.348;6.596;2023-07-29T15:11:49;0.90;;;0.90;;
28774;SDS011;15926;51.348;6.596;2023-07-29T15:14:15;0.80;;;0.80;;
28774;SDS011;15926;51.348;6.596;2023-07-29T15:16:41;1.10;;;1.10;;
28774;SDS011;15926;51.348;6.596;2023-07-29T15:19:07;0.95;;;0.90;;
28774;SDS011;15926;51.348;6.596;2023-07-29T15:21:33;0.93;;;0.90;;
28774;SDS011;15926;51.348;6.596;2023-07-29T15:23:59;1.35;;;1.15;;
28774;SDS011;15926;51.348;6.596;2023-07-29T15:26:25;0.90;;;0.90;;
28774;SDS011;15926;51.348;6.596;2023-07-29T15:28:51;1.00;;;1.00;;
28774;SDS011;15926;51.348;6.596;2023-07-29T15:31:17;1.30;;;0.75;;
28774;SDS011;15926;51.348;6.596;2023-07-29T15:33:43;1.10;;;1.10;;
28774;SDS011;15926;51.348;6.596;2023-07-29T15:36:09;0.90;;;0.90;;
28774;SDS011;15926;51.348;6.596;2023-07-29T15:38:35;1.23;;;1.15;;
28774;SDS011;15926;51.348;6.596;2023-07-29T15:41:01;1.08;;;1.05;;
28774;SDS011;15926;51.348;6.596;2023-07-29T15:43:27;1.00;;;1.00;;
28774;SDS011;15926;51.348;6.596;2023-07-29T15:45:53;0.90;;;0.90;;
28774;SDS011;15926;51.348;6.596;2023-07-29T15:48:19;1.00;;;1.00;;
28774;SDS011;15926;51.348;6.596;2023-07-29T15:50:45;0.90;;;0.90;;
28774;SDS011;15926;51.348;6.596;2023-07-29T15:53:11;1.00;;;1.00;;
28774;SDS011;15926;51.348;6.596;2023-07-29T15:55:37;1.10;;;1.10;;
28774;SDS011;15926;51.348;6.596;2023-07-29T15:58:03;1.15;;;1.15;;
28774;SDS011;15926;51.348;6.596;2023-07-29T16:00:29;1.20;;;1.10;;
28774;SDS011;15926;51.348;6.596;2023-07-29T16:02:55;1.27;;;1.10;;
28774;SDS011;15926;51.348;6.596;2023-07-29T16:05:21;0.80;;;0.80;;
28774;SDS011;15926;51.348;6.596;2023-07-29T16:07:47;2.58;;;1.20;;
28774;SDS011;15926;51.348;6.596;2023-07-29T16:10:14;1.00;;;1.00;;
28774;SDS011;15926;51.348;6.596;2023-07-29T16:12:40;1.33;;;1.23;;
28774;SDS011;15926;51.348;6.596;2023-07-29T16:15:07;1.42;;;1.00;;
28774;SDS011;15926;51.348;6.596;2023-07-29T16:17:33;1.20;;;1.10;;
28774;SDS011;15926;51.348;6.596;2023-07-29T16:20:00;0.90;;;0.90;;
28774;SDS011;15926;51.348;6.596;2023-07-29T16:22:26;1.20;;;1.10;;
28774;SDS011;15926;51.348;6.596;2023-07-29T16:24:52;1.17;;;1.10;;
28774;SDS011;15926;51.348;6.596;2023-07-29T16:27:19;1.25;;;0.98;;
28774;SDS011;15926;51.348;6.596;2023-07-29T16:29:45;2.78;;;0.82;;
28774;SDS011;15926;51.348;6.596;2023-07-29T16:32:11;1.02;;;1.02;;
28774;SDS011;15926;51.348;6.596;2023-07-29T16:34:37;0.95;;;0.95;;
28774;SDS011;15926;51.348;6.596;2023-07-29T16:37:07;1.05;;;1.00;;
28774;SDS011;15926;51.348;6.596;2023-07-29T16:39:33;1.92;;;1.00;;
28774;SDS011;15926;51.348;6.596;2023-07-29T16:41:59;1.58;;;0.70;;
28774;SDS011;15926;51.348;6.596;2023-07-29T16:44:25;0.80;;;0.80;;
28774;SDS011;15926;51.348;6.596;2023-07-29T16:46:51;1.00;;;0.90;;
28774;SDS011;15926;51.348;6.596;2023-07-29T16:49:17;0.95;;;0.95;;
28774;SDS011;15926;51.348;6.596;2023-07-29T16:51:43;1.02;;;0.90;;
28774;SDS011;15926;51.348;6.596;2023-07-29T16:54:09;1.00;;;0.90;;
28774;SDS011;15926;51.348;6.596;2023-07-29T16:56:35;2.92;;;1.00;;
28774;SDS011;15926;51.348;6.596;2023-07-29T16:59:01;1.00;;;1.00;;
28774;SDS011;15926;51.348;6.596;2023-07-29T17:01:27;3.88;;;1.00;;
28774;SDS011;15926;51.348;6.596;2023-07-29T17:03:53;0.82;;;0.82;;
28774;SDS011;15926;51.348;6.596;2023-07-29T17:06:19;1.17;;;1.10;;
28774;SDS011;15926;51.348;6.596;2023-07-29T17:08:45;2.80;;;1.27;;
28774;SDS011;15926;51.348;6.596;2023-07-29T17:11:11;3.40;;;1.33;;
28774;SDS011;15926;51.348;6.596;2023-07-29T17:13:37;1.38;;;1.27;;
28774;SDS011;15926;51.348;6.596;2023-07-29T17:16:03;1.02;;;1.00;;
28774;SDS011;15926;51.348;6.596;2023-07-29T17:18:29;1.05;;;0.95;;
28774;SDS011;15926;51.348;6.596;2023-07-29T17:20:55;0.95;;;0.90;;
28774;SDS011;15926;51.348;6.596;2023-07-29T17:23:21;1.30;;;1.20;;
28774;SDS011;15926;51.348;6.596;2023-07-29T17:25:47;1.25;;;1.10;;
28774;SDS011;15926;51.348;6.596;2023-07-29T17:28:13;2.20;;;1.20;;
28774;SDS011;15926;51.348;6.596;2023-07-29T17:30:39;1.20;;;1.10;;
28774;SDS011;15926;51.348;6.596;2023-07-29T17:33:05;3.05;;;1.00;;
28774;SDS011;15926;51.348;6.596;2023-07-29T17:35:31;1.20;;;0.93;;
28774;SDS011;15926;51.348;6.596;2023-07-29T17:37:57;1.27;;;0.98;;
28774;SDS011;15926;51.348;6.596;2023-07-29T17:40:23;1.08;;;0.70;;
28774;SDS011;15926;51.348;6.596;2023-07-29T17:42:49;0.70;;;0.70;;
28774;SDS011;15926;51.348;6.596;2023-07-29T17:45:15;1.13;;;0.85;;
28774;SDS011;15926;51.348;6.596;2023-07-29T17:47:41;0.75;;;0.75;;
28774;SDS011;15926;51.348;6.596;2023-07-29T17:50:07;0.90;;;0.70;;
28774;SDS011;15926;51.348;6.596;2023-07-29T17:52:33;1.98;;;0.75;;
28774;SDS011;15926;51.348;6.596;2023-07-29T17:54:59;1.00;;;0.80;;
28774;SDS011;15926;51.348;6.596;2023-07-29T17:57:25;2.60;;;0.60;;
28774;SDS011;15926;51.348;6.596;2023-07-29T17:59:52;0.98;;;0.70;;
28774;SDS011;15926;51.348;6.596;2023-07-29T18:02:18;0.65;;;0.65;;
28774;SDS011;15926;51.348;6.596;2023-07-29T18:04:44;1.73;;;0.68;;
28774;SDS011;15926;51.348;6.596;2023-07-29T18:07:11;0.77;;;0.70;;
28774;SDS011;15926;51.348;6.596;2023-07-29T18:09:37;1.20;;;0.75;;
28774;SDS011;15926;51.348;6.596;2023-07-29T18:12:04;1.08;;;1.02;;
28774;SDS011;15926;51.348;6.596;2023-07-29T18:14:30;2.05;;;0.80;;
28774;SDS011;15926;51.348;6.596;2023-07-29T18:16:56;0.82;;;0.52;;
28774;SDS011;15926;51.348;6.596;2023-07-29T18:19:22;1.33;;;0.73;;
28774;SDS011;15926;51.348;6.596;2023-07-29T18:21:49;1.45;;;0.70;;
28774;SDS011;15926;51.348;6.596;2023-07-29T18:24:15;0.70;;;0.70;;
28774;SDS011;15926;51.348;6.596;2023-07-29T18:26:41;1.10;;;1.00;;
28774;SDS011;15926;51.348;6.596;2023-07-29T18:29:07;1.35;;;1.00;;
28774;SDS011;15926;51.348;6.596;2023-07-29T18:31:34;2.65;;;1.00;;
28774;SDS011;15926;51.348;6.596;2023-07-29T18:34:00;0.95;;;0.93;;
28774;SDS011;15926;51.348;6.596;2023-07-29T18:36:26;0.80;;;0.80;;
28774;SDS011;15926;51.348;6.596;2023-07-29T18:41:21;0.85;;;0.80;;
28774;SDS011;15926;51.348;6.596;2023-07-29T18:43:47;1.83;;;0.90;;
28774;SDS011;15926;51.348;6.596;2023-07-29T18:46:14;1.13;;;0.95;;
28774;SDS011;15926;51.348;6.596;2023-07-29T18:48:40;0.90;;;0.90;;
28774;SDS011;15926;51.348;6.596;2023-07-29T18:51:06;1.40;;;1.30;;
28774;SDS011;15926;51.348;6.596;2023-07-29T18:53:32;1.35;;;1.15;;
28774;SDS011;15926;51.348;6.596;2023-07-29T18:55:58;1.13;;;1.00;;
28774;SDS011;15926;51.348;6.596;2023-07-29T18:58:24;1.77;;;1.33;;
28774;SDS011;15926;51.348;6.596;2023-07-29T19:00:50;1.77;;;1.30;;
28774;SDS011;15926;51.348;6.596;2023-07-29T19:03:18;1.83;;;1.38;;